sensor_id;sensor_type;location;lat;lon;timestamp;pressure;altitude;pressure_sealevel;temperature;humidity
57442;BME280;43284;47.042;15.498;2023-06-22T00:01:49;97478.16;;;18.75;100.00
57442;BME280;43284;47.042;15.498;2023-06-22T00:04:15;97484.78;;;18.69;100.00
57442;BME280;43284;47.042;15.498;2023-06-22T00:06:41;97482.13;;;18.69;100.00
57442;BME280;43284;47.042;15.498;2023-06-22T00:09:06;97479.34;;;18.71;100.00
57442;BME280;43284;47.042;15.498;2023-06-22T00:11:36;97475.84;;;18.70;100.00
57442;BME280;43284;47.042;15.498;2023-06-22T00:14:05;97466.34;;;18.68;100.00
57442;BME280;43284;47.042;15.498;2023-06-22T00:16:34;97472.00;;;18.63;100.00
57442;BME280;43284;47.042;15.498;2023-06-22T00:19:00;97472.09;;;18.62;100.00
57442;BME280;43284;47.042;15.498;2023-06-22T00:21:26;97476.66;;;18.60;100.00
57442;BME280;43284;47.042;15.498;2023-06-22T00:23:52;97473.09;;;18.61;100.00
57442;BME280;43284;47.042;15.498;2023-06-22T00:26:18;97477.50;;;18.60;100.00
57442;BME280;43284;47.042;15.498;2023-06-22T00:28:44;97480.03;;;18.62;100.00
57442;BME280;43284;47.042;15.498;2023-06-22T00:31:09;97471.03;;;18.64;100.00
57442;BME280;43284;47.042;15.498;2023-06-22T00:33:35;97474.66;;;18.63;100.00
57442;BME280;43284;47.042;15.498;2023-06-22T00:36:00;97482.69;;;18.62;100.00
57442;BME280;43284;47.042;15.498;2023-06-22T00:38:28;97481.34;;;18.56;100.00
57442;BME280;43284;47.042;15.498;2023-06-22T00:40:53;97483.16;;;18.56;100.00
57442;BME280;43284;47.042;15.498;2023-06-22T00:43:19;97477.97;;;18.54;100.00
57442;BME280;43284;47.042;15.498;2023-06-22T00:45:45;97471.47;;;18.58;100.00
57442;BME280;43284;47.042;15.498;2023-06-22T00:48:12;97471.38;;;18.60;100.00
57442;BME280;43284;47.042;15.498;2023-06-22T00:50:37;97467.78;;;18.61;100.00
57442;BME280;43284;47.042;15.498;2023-06-22T00:53:08;97463.06;;;18.64;100.00
57442;BME280;43284;47.042;15.498;2023-06-22T00:55:38;97465.50;;;18.67;100.00
57442;BME280;43284;47.042;15.498;2023-06-22T00:58:09;97463.81;;;18.66;100.00
57442;BME280;43284;47.042;15.498;2023-06-22T01:00:36;97460.44;;;18.64;100.00
57442;BME280;43284;47.042;15.498;2023-06-22T01:03:03;97449.94;;;18.63;100.00
57442;BME280;43284;47.042;15.498;2023-06-22T01:05:28;97447.44;;;18.61;100.00
57442;BME280;43284;47.042;15.498;2023-06-22T01:08:00;97442.97;;;18.62;100.00
57442;BME280;43284;47.042;15.498;2023-06-22T01:13:35;97457.50;;;18.56;100.00
57442;BME280;43284;47.042;15.498;2023-06-22T01:16:03;97456.56;;;18.46;100.00
57442;BME280;43284;47.042;15.498;2023-06-22T01:18:30;97452.44;;;18.42;100.00
57442;BME280;43284;47.042;15.498;2023-06-22T01:20:57;97454.25;;;18.41;100.00
57442;BME280;43284;47.042;15.498;2023-06-22T01:26:05;97462.66;;;18.35;100.00
57442;BME280;43284;47.042;15.498;2023-06-22T01:28:50;97466.72;;;18.28;100.00
57442;BME280;43284;47.042;15.498;2023-06-22T01:31:27;97470.66;;;18.22;100.00
57442;BME280;43284;47.042;15.498;2023-06-22T01:33:58;97471.00;;;18.18;100.00
57442;BME280;43284;47.042;15.498;2023-06-22T01:36:25;97469.09;;;18.20;100.00
57442;BME280;43284;47.042;15.498;2023-06-22T01:38:52;97472.47;;;18.22;100.00
57442;BME280;43284;47.042;15.498;2023-06-22T01:41:19;97467.03;;;18.23;100.00
57442;BME280;43284;47.042;15.498;2023-06-22T01:43:45;97466.94;;;18.25;100.00
57442;BME280;43284;47.042;15.498;2023-06-22T01:46:11;97462.97;;;18.19;100.00
57442;BME280;43284;47.042;15.498;2023-06-22T01:48:38;97468.47;;;18.16;100.00
57442;BME280;43284;47.042;15.498;2023-06-22T01:51:04;97465.44;;;18.09;100.00
57442;BME280;43284;47.042;15.498;2023-06-22T01:53:30;97469.06;;;18.08;100.00
57442;BME280;43284;47.042;15.498;2023-06-22T01:55:56;97470.34;;;18.03;100.00
57442;BME280;43284;47.042;15.498;2023-06-22T01:58:25;97468.78;;;18.00;100.00
57442;BME280;43284;47.042;15.498;2023-06-22T02:03:37;97462.25;;;17.93;100.00
57442;BME280;43284;47.042;15.498;2023-06-22T02:06:13;97462.25;;;17.93;100.00
57442;BME280;43284;47.042;15.498;2023-06-22T02:08:47;97460.78;;;17.89;100.00
57442;BME280;43284;47.042;15.498;2023-06-22T02:11:15;97468.00;;;17.87;100.00
57442;BME280;43284;47.042;15.498;2023-06-22T02:13:42;97465.00;;;17.91;100.00
57442;BME280;43284;47.042;15.498;2023-06-22T02:16:12;97468.41;;;17.81;100.00
57442;BME280;43284;47.042;15.498;2023-06-22T02:18:38;97472.22;;;17.77;100.00
57442;BME280;43284;47.042;15.498;2023-06-22T02:21:06;97474.56;;;17.68;100.00
57442;BME280;43284;47.042;15.498;2023-06-22T02:23:32;97466.13;;;17.63;100.00
57442;BME280;43284;47.042;15.498;2023-06-22T02:26:02;97469.84;;;17.61;100.00
57442;BME280;43284;47.042;15.498;2023-06-22T02:28:28;97476.22;;;17.58;100.00
57442;BME280;43284;47.042;15.498;2023-06-22T02:30:54;97487.72;;;17.57;100.00
57442;BME280;43284;47.042;15.498;2023-06-22T02:33:19;97489.63;;;17.55;100.00
57442;BME280;43284;47.042;15.498;2023-06-22T02:35:45;97486.78;;;17.58;100.00
57442;BME280;43284;47.042;15.498;2023-06-22T02:38:14;97482.44;;;17.57;100.00
57442;BME280;43284;47.042;15.498;2023-06-22T02:40:40;97482.44;;;17.57;100.00
57442;BME280;43284;47.042;15.498;2023-06-22T02:43:05;97486.03;;;17.56;100.00
57442;BME280;43284;47.042;15.498;2023-06-22T02:45:31;97488.78;;;17.55;100.00
57442;BME280;43284;47.042;15.498;2023-06-22T02:47:56;97481.94;;;17.52;100.00
57442;BME280;43284;47.042;15.498;2023-06-22T02:50:22;97480.84;;;17.55;100.00
57442;BME280;43284;47.042;15.498;2023-06-22T02:52:48;97485.06;;;17.57;100.00
57442;BME280;43284;47.042;15.498;2023-06-22T02:55:14;97496.72;;;17.55;100.00
57442;BME280;43284;47.042;15.498;2023-06-22T02:57:39;97494.91;;;17.55;100.00
57442;BME280;43284;47.042;15.498;2023-06-22T03:00:09;97494.06;;;17.55;100.00
57442;BME280;43284;47.042;15.498;2023-06-22T03:02:46;97498.63;;;17.53;100.00
57442;BME280;43284;47.042;15.498;2023-06-22T03:05:12;97499.88;;;17.60;100.00
57442;BME280;43284;47.042;15.498;2023-06-22T03:07:42;97496.28;;;17.61;100.00
57442;BME280;43284;47.042;15.498;2023-06-22T03:10:10;97497.31;;;17.71;100.00
57442;BME280;43284;47.042;15.498;2023-06-22T03:12:39;97493.59;;;17.74;100.00
57442;BME280;43284;47.042;15.498;2023-06-22T03:15:06;97486.63;;;17.73;100.00
57442;BME280;43284;47.042;15.498;2023-06-22T03:17:32;97491.81;;;17.74;100.00
57442;BME280;43284;47.042;15.498;2023-06-22T03:19:57;97488.09;;;17.77;100.00
57442;BME280;43284;47.042;15.498;2023-06-22T03:22:23;97486.91;;;17.81;100.00
57442;BME280;43284;47.042;15.498;2023-06-22T03:24:48;97496.44;;;17.83;100.00
57442;BME280;43284;47.042;15.498;2023-06-22T03:27:14;97494.44;;;17.87;100.00
57442;BME280;43284;47.042;15.498;2023-06-22T03:29:39;97501.41;;;17.88;100.00
57442;BME280;43284;47.042;15.498;2023-06-22T03:32:05;97503.94;;;17.89;100.00
57442;BME280;43284;47.042;15.498;2023-06-22T03:34:31;97502.03;;;17.91;100.00
57442;BME280;43284;47.042;15.498;2023-06-22T03:37:01;97503.59;;;17.94;100.00
57442;BME280;43284;47.042;15.498;2023-06-22T03:39:27;97487.00;;;17.92;100.00
57442;BME280;43284;47.042;15.498;2023-06-22T03:41:52;97492.91;;;17.96;100.00
57442;BME280;43284;47.042;15.498;2023-06-22T03:44:18;97495.56;;;17.96;100.00
57442;BME280;43284;47.042;15.498;2023-06-22T03:46:46;97503.50;;;17.96;100.00
57442;BME280;43284;47.042;15.498;2023-06-22T03:49:11;97498.94;;;17.98;100.00
57442;BME280;43284;47.042;15.498;2023-06-22T03:51:37;97499.88;;;17.97;100.00
57442;BME280;43284;47.042;15.498;2023-06-22T03:54:02;97503.38;;;17.97;100.00
57442;BME280;43284;47.042;15.498;2023-06-22T03:56:28;97494.59;;;17.97;100.00
57442;BME280;43284;47.042;15.498;2023-06-22T03:58:53;97498.94;;;17.98;100.00
57442;BME280;43284;47.042;15.498;2023-06-22T04:01:19;97505.91;;;17.99;100.00
57442;BME280;43284;47.042;15.498;2023-06-22T04:03:44;97502.19;;;18.01;100.00
57442;BME280;43284;47.042;15.498;2023-06-22T04:06:10;97494.38;;;18.00;100.00
57442;BME280;43284;47.042;15.498;2023-06-22T04:08:35;97492.56;;;18.00;100.00
57442;BME280;43284;47.042;15.498;2023-06-22T04:11:01;97492.56;;;18.00;100.00
57442;BME280;43284;47.042;15.498;2023-06-22T04:13:26;97498.50;;;18.04;100.00
57442;BME280;43284;47.042;15.498;2023-06-22T04:15:52;97496.56;;;18.06;100.00
57442;BME280;43284;47.042;15.498;2023-06-22T04:18:17;97491.06;;;18.09;100.00
57442;BME280;43284;47.042;15.498;2023-06-22T04:20:43;97488.16;;;18.12;100.00
57442;BME280;43284;47.042;15.498;2023-06-22T04:23:12;97490.59;;;18.15;100.00
57442;BME280;43284;47.042;15.498;2023-06-22T04:25:39;97484.13;;;18.19;100.00
57442;BME280;43284;47.042;15.498;2023-06-22T04:28:04;97485.56;;;18.23;100.00
57442;BME280;43284;47.042;15.498;2023-06-22T04:30:32;97486.19;;;18.27;100.00
57442;BME280;43284;47.042;15.498;2023-06-22T04:32:58;97484.38;;;18.27;100.00
57442;BME280;43284;47.042;15.498;2023-06-22T04:35:24;97485.94;;;18.30;100.00
57442;BME280;43284;47.042;15.498;2023-06-22T04:37:50;97484.66;;;18.36;100.00
57442;BME280;43284;47.042;15.498;2023-06-22T04:40:21;97495.00;;;18.39;100.00
57442;BME280;43284;47.042;15.498;2023-06-22T04:42:46;97486.75;;;18.43;100.00
57442;BME280;43284;47.042;15.498;2023-06-22T04:45:17;97487.44;;;18.45;100.00
57442;BME280;43284;47.042;15.498;2023-06-22T04:47:43;97484.59;;;18.48;100.00
57442;BME280;43284;47.042;15.498;2023-06-22T04:50:13;97475.47;;;18.52;100.00
57442;BME280;43284;47.042;15.498;2023-06-22T04:52:39;97476.91;;;18.57;100.00
57442;BME280;43284;47.042;15.498;2023-06-22T04:55:05;97477.41;;;18.62;100.00
57442;BME280;43284;47.042;15.498;2023-06-22T04:57:31;97480.66;;;18.65;100.00
57442;BME280;43284;47.042;15.498;2023-06-22T04:59:59;97476.47;;;18.74;100.00
57442;BME280;43284;47.042;15.498;2023-06-22T05:02:40;97467.00;;;18.83;100.00
57442;BME280;43284;47.042;15.498;2023-06-22T05:05:06;97464.84;;;18.88;100.00
57442;BME280;43284;47.042;15.498;2023-06-22T05:07:33;97468.84;;;18.93;100.00
57442;BME280;43284;47.042;15.498;2023-06-22T05:10:00;97469.19;;;19.00;100.00
57442;BME280;43284;47.042;15.498;2023-06-22T05:12:25;97467.28;;;19.02;100.00
57442;BME280;43284;47.042;15.498;2023-06-22T05:14:51;97461.00;;;19.03;100.00
57442;BME280;43284;47.042;15.498;2023-06-22T05:17:16;97463.91;;;19.11;100.00
57442;BME280;43284;47.042;15.498;2023-06-22T05:19:44;97467.84;;;19.17;100.00
57442;BME280;43284;47.042;15.498;2023-06-22T05:22:16;97466.19;;;19.27;98.45
57442;BME280;43284;47.042;15.498;2023-06-22T05:24:42;97467.38;;;19.34;97.91
57442;BME280;43284;47.042;15.498;2023-06-22T05:27:09;97458.66;;;19.44;97.56
57442;BME280;43284;47.042;15.498;2023-06-22T05:29:34;97458.91;;;19.52;96.22
57442;BME280;43284;47.042;15.498;2023-06-22T05:32:00;97454.56;;;19.62;97.33
57442;BME280;43284;47.042;15.498;2023-06-22T05:34:26;97460.97;;;19.71;98.64
57442;BME280;43284;47.042;15.498;2023-06-22T05:36:51;97461.41;;;19.76;99.21
57442;BME280;43284;47.042;15.498;2023-06-22T05:39:17;97456.84;;;19.78;97.95
57442;BME280;43284;47.042;15.498;2023-06-22T05:41:44;97467.78;;;19.85;97.99
57442;BME280;43284;47.042;15.498;2023-06-22T05:44:09;97462.81;;;19.91;99.14
57442;BME280;43284;47.042;15.498;2023-06-22T05:46:35;97465.59;;;20.01;99.77
57442;BME280;43284;47.042;15.498;2023-06-22T05:49:01;97462.56;;;20.06;99.43
57442;BME280;43284;47.042;15.498;2023-06-22T05:51:26;97456.75;;;20.12;100.00
57442;BME280;43284;47.042;15.498;2023-06-22T05:53:52;97461.53;;;20.18;99.94
57442;BME280;43284;47.042;15.498;2023-06-22T05:56:17;97456.69;;;20.23;99.78
57442;BME280;43284;47.042;15.498;2023-06-22T05:58:43;97455.31;;;20.29;99.40
57442;BME280;43284;47.042;15.498;2023-06-22T06:01:08;97449.50;;;20.35;98.10
57442;BME280;43284;47.042;15.498;2023-06-22T06:03:34;97450.53;;;20.44;99.14
57442;BME280;43284;47.042;15.498;2023-06-22T06:06:07;97449.19;;;20.49;97.10
57442;BME280;43284;47.042;15.498;2023-06-22T06:08:33;97450.34;;;20.56;95.75
57442;BME280;43284;47.042;15.498;2023-06-22T06:10:59;97455.06;;;20.64;96.08
57442;BME280;43284;47.042;15.498;2023-06-22T06:13:24;97446.53;;;20.70;96.19
57442;BME280;43284;47.042;15.498;2023-06-22T06:15:50;97443.38;;;20.76;96.15
57442;BME280;43284;47.042;15.498;2023-06-22T06:18:20;97448.03;;;20.84;95.66
57442;BME280;43284;47.042;15.498;2023-06-22T06:20:46;97446.66;;;20.90;94.75
57442;BME280;43284;47.042;15.498;2023-06-22T06:23:12;97446.72;;;20.99;94.92
57442;BME280;43284;47.042;15.498;2023-06-22T06:25:37;97445.91;;;21.09;94.87
57442;BME280;43284;47.042;15.498;2023-06-22T06:28:03;97438.97;;;21.17;94.82
57442;BME280;43284;47.042;15.498;2023-06-22T06:30:29;97432.69;;;21.28;95.75
57442;BME280;43284;47.042;15.498;2023-06-22T06:32:54;97431.19;;;21.35;93.97
57442;BME280;43284;47.042;15.498;2023-06-22T06:35:21;97429.69;;;21.43;94.08
57442;BME280;43284;47.042;15.498;2023-06-22T06:37:48;97421.03;;;21.50;93.75
57442;BME280;43284;47.042;15.498;2023-06-22T06:40:16;97419.78;;;21.54;91.24
57442;BME280;43284;47.042;15.498;2023-06-22T06:42:45;97422.31;;;21.66;90.98
57442;BME280;43284;47.042;15.498;2023-06-22T06:45:12;97414.91;;;21.79;89.19
57442;BME280;43284;47.042;15.498;2023-06-22T06:47:39;97418.56;;;21.88;88.40
57442;BME280;43284;47.042;15.498;2023-06-22T06:50:05;97423.63;;;22.00;89.44
57442;BME280;43284;47.042;15.498;2023-06-22T06:52:31;97419.69;;;22.05;87.66
57442;BME280;43284;47.042;15.498;2023-06-22T06:54:57;97417.31;;;22.11;87.34
57442;BME280;43284;47.042;15.498;2023-06-22T06:57:23;97420.25;;;22.18;87.41
57442;BME280;43284;47.042;15.498;2023-06-22T06:59:49;97412.72;;;22.23;87.77
57442;BME280;43284;47.042;15.498;2023-06-22T07:02:15;97408.91;;;22.35;86.64
57442;BME280;43284;47.042;15.498;2023-06-22T07:04:41;97410.84;;;22.43;87.36
57442;BME280;43284;47.042;15.498;2023-06-22T07:07:07;97405.78;;;22.50;88.10
57442;BME280;43284;47.042;15.498;2023-06-22T07:09:32;97409.03;;;22.53;86.97
57442;BME280;43284;47.042;15.498;2023-06-22T07:11:58;97406.75;;;22.58;85.67
57442;BME280;43284;47.042;15.498;2023-06-22T07:14:23;97413.75;;;22.69;83.26
57442;BME280;43284;47.042;15.498;2023-06-22T07:16:49;97409.53;;;22.76;81.34
57442;BME280;43284;47.042;15.498;2023-06-22T07:19:14;97404.47;;;22.83;nan
57442;BME280;43284;47.042;15.498;2023-06-22T07:21:40;97406.53;;;22.89;81.49
57442;BME280;43284;47.042;15.498;2023-06-22T07:24:06;97411.72;;;23.00;83.04
57442;BME280;43284;47.042;15.498;2023-06-22T07:26:32;97406.25;;;23.02;81.71
57442;BME280;43284;47.042;15.498;2023-06-22T07:28:58;97406.66;;;23.07;81.19
57442;BME280;43284;47.042;15.498;2023-06-22T07:31:25;97406.03;;;23.13;79.29
57442;BME280;43284;47.042;15.498;2023-06-22T07:33:50;97402.78;;;23.19;78.51
57442;BME280;43284;47.042;15.498;2023-06-22T07:36:17;97396.72;;;23.27;78.13
57442;BME280;43284;47.042;15.498;2023-06-22T07:38:43;97398.03;;;23.41;79.47
57442;BME280;43284;47.042;15.498;2023-06-22T07:41:08;97394.09;;;23.45;78.15
57442;BME280;43284;47.042;15.498;2023-06-22T07:43:34;97403.50;;;23.49;77.23
57442;BME280;43284;47.042;15.498;2023-06-22T07:46:03;97410.59;;;23.58;76.65
57442;BME280;43284;47.042;15.498;2023-06-22T07:48:29;97403.66;;;23.65;75.38
57442;BME280;43284;47.042;15.498;2023-06-22T07:50:54;97394.75;;;23.75;76.53
57442;BME280;43284;47.042;15.498;2023-06-22T07:53:21;97402.72;;;23.84;76.49
57442;BME280;43284;47.042;15.498;2023-06-22T07:55:47;97395.84;;;24.00;76.59
57442;BME280;43284;47.042;15.498;2023-06-22T07:58:13;97392.84;;;24.03;73.66
57442;BME280;43284;47.042;15.498;2023-06-22T08:00:38;97390.56;;;24.26;71.65
57442;BME280;43284;47.042;15.498;2023-06-22T08:03:04;97391.03;;;24.21;71.65
57442;BME280;43284;47.042;15.498;2023-06-22T08:05:30;97387.53;;;24.21;73.42
57442;BME280;43284;47.042;15.498;2023-06-22T08:07:56;97391.56;;;24.25;73.24
57442;BME280;43284;47.042;15.498;2023-06-22T08:10:22;97386.44;;;24.32;71.41
57442;BME280;43284;47.042;15.498;2023-06-22T08:12:48;97391.81;;;24.40;72.53
57442;BME280;43284;47.042;15.498;2023-06-22T08:15:14;97386.19;;;24.43;71.49
57442;BME280;43284;47.042;15.498;2023-06-22T08:17:40;97385.28;;;24.52;73.10
57442;BME280;43284;47.042;15.498;2023-06-22T08:20:06;97378.16;;;24.61;74.20
57442;BME280;43284;47.042;15.498;2023-06-22T08:22:37;97386.72;;;24.73;74.72
57442;BME280;43284;47.042;15.498;2023-06-22T08:25:03;97381.44;;;24.81;73.44
57442;BME280;43284;47.042;15.498;2023-06-22T08:27:32;97376.63;;;24.84;72.04
57442;BME280;43284;47.042;15.498;2023-06-22T08:30:00;97375.66;;;24.94;72.51
57442;BME280;43284;47.042;15.498;2023-06-22T08:32:29;97375.72;;;25.10;71.99
57442;BME280;43284;47.042;15.498;2023-06-22T08:34:58;97379.06;;;25.12;70.59
57442;BME280;43284;47.042;15.498;2023-06-22T08:37:24;97377.06;;;25.14;69.51
57442;BME280;43284;47.042;15.498;2023-06-22T08:39:59;97371.13;;;25.20;69.09
57442;BME280;43284;47.042;15.498;2023-06-22T08:42:25;97373.69;;;25.30;70.06
57442;BME280;43284;47.042;15.498;2023-06-22T08:44:51;97372.16;;;25.36;68.30
57442;BME280;43284;47.042;15.498;2023-06-22T08:47:16;97368.50;;;25.45;69.46
57442;BME280;43284;47.042;15.498;2023-06-22T08:49:42;97377.59;;;25.52;69.36
57442;BME280;43284;47.042;15.498;2023-06-22T08:52:07;97374.25;;;25.58;68.78
57442;BME280;43284;47.042;15.498;2023-06-22T08:54:33;97371.75;;;25.65;68.05
57442;BME280;43284;47.042;15.498;2023-06-22T08:57:00;97368.22;;;25.64;66.09
57442;BME280;43284;47.042;15.498;2023-06-22T08:59:26;97364.22;;;25.68;63.60
57442;BME280;43284;47.042;15.498;2023-06-22T09:01:51;97372.44;;;25.75;66.44
57442;BME280;43284;47.042;15.498;2023-06-22T09:04:17;97364.94;;;25.87;66.56
57442;BME280;43284;47.042;15.498;2023-06-22T09:06:42;97358.09;;;25.93;67.68
57442;BME280;43284;47.042;15.498;2023-06-22T09:09:15;97364.28;;;26.01;66.12
57442;BME280;43284;47.042;15.498;2023-06-22T09:11:41;97363.13;;;26.04;64.49
57442;BME280;43284;47.042;15.498;2023-06-22T09:14:08;97365.13;;;26.10;66.90
57442;BME280;43284;47.042;15.498;2023-06-22T09:16:34;97358.75;;;26.27;65.73
57442;BME280;43284;47.042;15.498;2023-06-22T09:19:00;97358.44;;;26.22;62.92
57442;BME280;43284;47.042;15.498;2023-06-22T09:21:25;97347.53;;;26.32;64.46
57442;BME280;43284;47.042;15.498;2023-06-22T09:23:51;97351.38;;;26.38;64.41
57442;BME280;43284;47.042;15.498;2023-06-22T09:26:18;97351.38;;;26.46;64.84
57442;BME280;43284;47.042;15.498;2023-06-22T09:28:43;97355.22;;;26.51;64.51
57442;BME280;43284;47.042;15.498;2023-06-22T09:31:09;97354.88;;;26.55;63.26
57442;BME280;43284;47.042;15.498;2023-06-22T09:33:35;97357.91;;;26.60;64.14
57442;BME280;43284;47.042;15.498;2023-06-22T09:36:01;97364.09;;;26.77;67.39
57442;BME280;43284;47.042;15.498;2023-06-22T09:38:27;97355.00;;;26.86;65.15
57442;BME280;43284;47.042;15.498;2023-06-22T09:40:52;97346.56;;;26.97;65.69
57442;BME280;43284;47.042;15.498;2023-06-22T09:43:18;97344.03;;;27.04;63.52
57442;BME280;43284;47.042;15.498;2023-06-22T09:45:43;97348.53;;;27.11;64.50
57442;BME280;43284;47.042;15.498;2023-06-22T09:48:09;97343.50;;;27.08;62.64
57442;BME280;43284;47.042;15.498;2023-06-22T09:50:37;97335.59;;;27.15;62.22
57442;BME280;43284;47.042;15.498;2023-06-22T09:53:03;97343.66;;;27.23;64.15
57442;BME280;43284;47.042;15.498;2023-06-22T09:55:28;97348.13;;;27.31;62.86
57442;BME280;43284;47.042;15.498;2023-06-22T09:57:54;97342.06;;;27.37;63.10
57442;BME280;43284;47.042;15.498;2023-06-22T10:00:20;97340.34;;;27.44;63.38
57442;BME280;43284;47.042;15.498;2023-06-22T10:02:47;97332.09;;;27.46;64.13
57442;BME280;43284;47.042;15.498;2023-06-22T10:05:12;97342.69;;;27.47;62.37
57442;BME280;43284;47.042;15.498;2023-06-22T10:07:38;97332.09;;;27.46;58.72
57442;BME280;43284;47.042;15.498;2023-06-22T10:10:08;97332.09;;;27.46;61.02
57442;BME280;43284;47.042;15.498;2023-06-22T10:12:33;97332.75;;;27.48;60.78
57442;BME280;43284;47.042;15.498;2023-06-22T10:14:59;97331.56;;;27.50;60.99
57442;BME280;43284;47.042;15.498;2023-06-22T10:17:24;97336.44;;;27.55;63.55
57442;BME280;43284;47.042;15.498;2023-06-22T10:19:50;97328.97;;;27.65;64.36
57442;BME280;43284;47.042;15.498;2023-06-22T10:22:15;97322.72;;;27.73;63.14
57442;BME280;43284;47.042;15.498;2023-06-22T10:24:41;97325.03;;;27.76;61.21
57442;BME280;43284;47.042;15.498;2023-06-22T10:27:12;97326.66;;;27.85;63.16
57442;BME280;43284;47.042;15.498;2023-06-22T10:29:38;97318.06;;;27.90;61.78
57442;BME280;43284;47.042;15.498;2023-06-22T10:32:04;97320.03;;;27.96;61.21
57442;BME280;43284;47.042;15.498;2023-06-22T10:34:30;97320.50;;;28.00;60.36
57442;BME280;43284;47.042;15.498;2023-06-22T10:36:56;97307.06;;;28.00;59.15
57442;BME280;43284;47.042;15.498;2023-06-22T10:39:21;97305.69;;;28.04;60.14
57442;BME280;43284;47.042;15.498;2023-06-22T10:41:47;97311.34;;;28.09;61.92
57442;BME280;43284;47.042;15.498;2023-06-22T10:44:12;97303.50;;;28.22;63.09
57442;BME280;43284;47.042;15.498;2023-06-22T10:46:38;97304.44;;;28.29;62.90
57442;BME280;43284;47.042;15.498;2023-06-22T10:49:04;97298.59;;;28.26;59.81
57442;BME280;43284;47.042;15.498;2023-06-22T10:51:29;97300.56;;;28.32;60.21
57442;BME280;43284;47.042;15.498;2023-06-22T10:53:56;97310.50;;;28.46;63.23
57442;BME280;43284;47.042;15.498;2023-06-22T10:56:22;97305.06;;;28.54;61.11
57442;BME280;43284;47.042;15.498;2023-06-22T10:58:47;97299.03;;;28.52;57.18
57442;BME280;43284;47.042;15.498;2023-06-22T11:01:13;97294.41;;;28.61;60.03
57442;BME280;43284;47.042;15.498;2023-06-22T11:03:39;97283.25;;;28.64;60.69
57442;BME280;43284;47.042;15.498;2023-06-22T11:06:04;97286.03;;;28.86;60.93
57442;BME280;43284;47.042;15.498;2023-06-22T11:08:30;97283.63;;;28.91;59.27
57442;BME280;43284;47.042;15.498;2023-06-22T11:10:55;97281.09;;;29.04;60.00
57442;BME280;43284;47.042;15.498;2023-06-22T11:13:21;97286.50;;;29.19;59.92
57442;BME280;43284;47.042;15.498;2023-06-22T11:15:46;97284.88;;;29.25;59.05
57442;BME280;43284;47.042;15.498;2023-06-22T11:18:12;97276.41;;;29.28;57.90
57442;BME280;43284;47.042;15.498;2023-06-22T11:20:40;97281.50;;;29.37;59.42
57442;BME280;43284;47.042;15.498;2023-06-22T11:23:06;97273.91;;;29.41;57.97
57442;BME280;43284;47.042;15.498;2023-06-22T11:25:32;97284.53;;;29.49;58.14
57442;BME280;43284;47.042;15.498;2023-06-22T11:28:03;97273.44;;;29.59;56.85
57442;BME280;43284;47.042;15.498;2023-06-22T11:30:29;97275.38;;;29.65;54.98
57442;BME280;43284;47.042;15.498;2023-06-22T11:32:56;97268.84;;;29.74;56.19
57442;BME280;43284;47.042;15.498;2023-06-22T11:35:21;97268.47;;;29.77;56.11
57442;BME280;43284;47.042;15.498;2023-06-22T11:37:46;97269.97;;;29.87;54.95
57442;BME280;43284;47.042;15.498;2023-06-22T11:40:12;97272.22;;;30.05;57.56
57442;BME280;43284;47.042;15.498;2023-06-22T11:42:38;97269.41;;;30.19;58.87
57442;BME280;43284;47.042;15.498;2023-06-22T11:45:05;97264.88;;;30.20;53.54
57442;BME280;43284;47.042;15.498;2023-06-22T11:47:30;97265.19;;;30.32;55.87
57442;BME280;43284;47.042;15.498;2023-06-22T11:49:56;97258.00;;;30.46;55.89
57442;BME280;43284;47.042;15.498;2023-06-22T11:52:21;97261.38;;;30.54;55.03
57442;BME280;43284;47.042;15.498;2023-06-22T11:54:47;97253.97;;;30.70;54.37
57442;BME280;43284;47.042;15.498;2023-06-22T11:57:12;97264.00;;;30.83;53.16
57442;BME280;43284;47.042;15.498;2023-06-22T11:59:38;97262.22;;;30.90;52.88
57442;BME280;43284;47.042;15.498;2023-06-22T12:02:03;97252.91;;;30.99;51.73
57442;BME280;43284;47.042;15.498;2023-06-22T12:04:30;97253.72;;;30.93;50.88
57442;BME280;43284;47.042;15.498;2023-06-22T12:06:56;97250.59;;;30.96;53.87
57442;BME280;43284;47.042;15.498;2023-06-22T12:09:21;97247.25;;;30.94;51.61
57442;BME280;43284;47.042;15.498;2023-06-22T12:11:47;97243.09;;;30.91;52.74
57442;BME280;43284;47.042;15.498;2023-06-22T12:14:12;97236.47;;;30.94;52.96
57442;BME280;43284;47.042;15.498;2023-06-22T12:16:38;97232.56;;;30.96;53.62
57442;BME280;43284;47.042;15.498;2023-06-22T12:19:03;97227.19;;;31.03;55.31
57442;BME280;43284;47.042;15.498;2023-06-22T12:21:29;97228.84;;;31.17;54.14
57442;BME280;43284;47.042;15.498;2023-06-22T12:23:54;97241.13;;;31.20;53.52
57442;BME280;43284;47.042;15.498;2023-06-22T12:26:20;97233.88;;;31.20;51.58
57442;BME280;43284;47.042;15.498;2023-06-22T12:28:47;97227.84;;;31.25;51.75
57442;BME280;43284;47.042;15.498;2023-06-22T12:31:13;97224.94;;;31.27;51.06
57442;BME280;43284;47.042;15.498;2023-06-22T12:33:39;97217.69;;;31.34;52.84
57442;BME280;43284;47.042;15.498;2023-06-22T12:36:05;97217.75;;;31.47;53.37
57442;BME280;43284;47.042;15.498;2023-06-22T12:38:30;97213.16;;;31.54;51.87
57442;BME280;43284;47.042;15.498;2023-06-22T12:40:56;97207.97;;;31.46;50.67
57442;BME280;43284;47.042;15.498;2023-06-22T12:43:21;97218.38;;;31.56;51.00
57442;BME280;43284;47.042;15.498;2023-06-22T12:45:46;97215.66;;;31.49;50.37
57442;BME280;43284;47.042;15.498;2023-06-22T12:48:12;97214.00;;;31.48;50.73
57442;BME280;43284;47.042;15.498;2023-06-22T12:50:38;97215.66;;;31.49;49.41